createdAt,value
2022-11-02T00:00:14.884Z,100.00
2022-11-02T00:02:43.954Z,100.00
2022-11-02T00:05:14.323Z,100.00
2022-11-02T00:07:41.886Z,100.00
2022-11-02T00:10:09.780Z,100.00
2022-11-02T00:12:36.216Z,100.00
2022-11-02T00:15:03.089Z,100.00
2022-11-02T00:17:30.049Z,100.00
2022-11-02T00:19:56.517Z,100.00
2022-11-02T00:22:26.225Z,100.00
2022-11-02T00:24:53.377Z,100.00
2022-11-02T00:27:19.911Z,100.00
2022-11-02T00:29:48.989Z,100.00
2022-11-02T00:32:15.478Z,100.00
2022-11-02T00:34:41.936Z,100.00
2022-11-02T00:37:10.577Z,100.00
2022-11-02T00:39:37.061Z,100.00
2022-11-02T00:42:03.575Z,100.00
2022-11-02T00:44:29.998Z,100.00
2022-11-02T00:46:56.418Z,100.00
2022-11-02T00:49:22.926Z,100.00
2022-11-02T00:51:49.362Z,100.00
2022-11-02T00:54:15.794Z,100.00
2022-11-02T00:56:42.315Z,100.00
2022-11-02T00:59:08.716Z,100.00
2022-11-02T01:01:35.384Z,100.00
2022-11-02T01:04:01.913Z,100.00
2022-11-02T01:06:28.556Z,100.00
2022-11-02T01:08:54.993Z,100.00
2022-11-02T01:11:23.432Z,100.00
2022-11-02T01:13:52.087Z,100.00
2022-11-02T01:16:19.411Z,100.00
2022-11-02T01:18:45.809Z,100.00
2022-11-02T01:21:12.235Z,100.00
2022-11-02T01:23:43.738Z,100.00
2022-11-02T01:26:10.830Z,100.00
2022-11-02T01:28:39.170Z,100.00
2022-11-02T01:31:06.985Z,100.00
2022-11-02T01:33:33.685Z,100.00
2022-11-02T01:36:05.900Z,100.00
2022-11-02T01:38:33.204Z,100.00
2022-11-02T01:41:00.284Z,100.00
2022-11-02T01:43:32.432Z,100.00
2022-11-02T01:46:06.667Z,100.00
2022-11-02T01:48:45.271Z,100.00
2022-11-02T01:51:18.609Z,100.00
2022-11-02T01:53:50.543Z,100.00
2022-11-02T01:59:01.673Z,100.00
2022-11-02T02:01:29.004Z,100.00
2022-11-02T02:03:57.130Z,100.00
2022-11-02T02:06:27.770Z,100.00
2022-11-02T02:08:57.148Z,100.00
2022-11-02T02:11:29.549Z,100.00
2022-11-02T02:13:58.107Z,100.00
2022-11-02T02:16:42.781Z,100.00
2022-11-02T02:19:28.463Z,100.00
2022-11-02T02:22:16.726Z,100.00
2022-11-02T02:24:49.945Z,100.00
2022-11-02T02:27:23.494Z,100.00
2022-11-02T02:29:54.991Z,100.00
2022-11-02T02:32:27.719Z,100.00
2022-11-02T02:35:07.762Z,100.00
2022-11-02T02:37:42.826Z,100.00
2022-11-02T02:40:35.479Z,100.00
2022-11-02T02:43:17.436Z,100.00
2022-11-02T02:45:55.304Z,100.00
2022-11-02T02:48:24.798Z,100.00
2022-11-02T02:50:55.840Z,100.00
2022-11-02T02:53:31.208Z,100.00
2022-11-02T02:56:00.494Z,100.00
2022-11-02T02:58:31.853Z,100.00
2022-11-02T03:01:00.618Z,100.00
2022-11-02T03:03:29.838Z,100.00
2022-11-02T03:06:09.017Z,100.00
2022-11-02T03:08:41.093Z,100.00
2022-11-02T03:11:15.772Z,100.00
2022-11-02T03:14:15.801Z,100.00
2022-11-02T03:17:04.340Z,100.00
2022-11-02T03:19:37.993Z,100.00
2022-11-02T03:22:44.375Z,100.00
2022-11-02T03:25:31.395Z,100.00
2022-11-02T03:28:11.395Z,100.00
2022-11-02T03:30:55.997Z,100.00
2022-11-02T03:33:31.812Z,100.00
2022-11-02T03:36:09.685Z,100.00
2022-11-02T03:38:51.447Z,100.00
2022-11-02T03:41:21.640Z,100.00
2022-11-02T03:43:51.466Z,100.00
2022-11-02T03:46:19.547Z,100.00
2022-11-02T03:48:49.367Z,100.00
2022-11-02T03:51:20.382Z,100.00
2022-11-02T03:53:56.582Z,100.00
2022-11-02T03:56:35.055Z,100.00
2022-11-02T03:59:01.524Z,100.00
2022-11-02T04:01:29.513Z,100.00
2022-11-02T04:03:56.641Z,100.00
2022-11-02T04:06:25.360Z,100.00
2022-11-02T04:08:51.792Z,100.00
2022-11-02T04:11:36.677Z,100.00
2022-11-02T04:14:21.929Z,100.00
2022-11-02T04:16:48.373Z,100.00
2022-11-02T04:19:29.894Z,100.00
2022-11-02T04:22:15.562Z,100.00
2022-11-02T04:25:01.238Z,100.00
2022-11-02T04:27:27.680Z,100.00
2022-11-02T04:29:56.209Z,100.00
2022-11-02T04:32:41.546Z,100.00
2022-11-02T04:35:08.697Z,100.00
2022-11-02T04:37:57.729Z,100.00
2022-11-02T04:40:24.260Z,100.00
2022-11-02T04:42:50.872Z,100.00
2022-11-02T04:45:17.644Z,100.00
2022-11-02T04:47:44.145Z,100.00
2022-11-02T04:50:17.480Z,100.00
2022-11-02T04:52:46.932Z,100.00
2022-11-02T04:55:13.328Z,100.00
2022-11-02T04:57:44.706Z,100.00
2022-11-02T05:00:11.874Z,100.00
2022-11-02T05:02:38.368Z,100.00
2022-11-02T05:05:07.822Z,100.00
2022-11-02T05:07:34.338Z,100.00
2022-11-02T05:10:00.698Z,100.00
2022-11-02T05:12:29.328Z,100.00
2022-11-02T05:14:58.091Z,100.00
2022-11-02T05:17:24.485Z,100.00
2022-11-02T05:19:50.854Z,100.00
2022-11-02T05:22:17.275Z,100.00
2022-11-02T05:24:46.014Z,100.00
2022-11-02T05:27:12.410Z,100.00
2022-11-02T05:29:38.805Z,100.00
2022-11-02T05:32:05.328Z,100.00
2022-11-02T05:34:31.743Z,100.00
2022-11-02T05:36:59.012Z,100.00
2022-11-02T05:39:25.638Z,100.00
2022-11-02T05:41:52.048Z,100.00
2022-11-02T05:44:18.441Z,100.00
2022-11-02T05:46:44.851Z,100.00
2022-11-02T05:49:11.194Z,100.00
2022-11-02T05:51:40.167Z,100.00
2022-11-02T05:54:06.673Z,100.00
2022-11-02T05:56:35.631Z,100.00
2022-11-02T05:59:02.113Z,100.00
2022-11-02T06:01:28.534Z,100.00
2022-11-02T06:03:55.015Z,100.00
2022-11-02T06:06:23.498Z,100.00
2022-11-02T06:08:49.952Z,100.00
2022-11-02T06:11:16.396Z,100.00
2022-11-02T06:13:45.609Z,100.00
2022-11-02T06:16:18.699Z,100.00
2022-11-02T06:18:48.987Z,100.00
2022-11-02T06:21:15.692Z,100.00
2022-11-02T06:23:42.965Z,100.00
2022-11-02T06:26:09.625Z,100.00
2022-11-02T06:28:36.044Z,100.00
2022-11-02T06:31:05.495Z,100.00
2022-11-02T06:33:32.016Z,100.00
2022-11-02T06:35:59.063Z,100.00
2022-11-02T06:38:25.727Z,100.00
2022-11-02T06:40:59.759Z,100.00
2022-11-02T06:43:26.439Z,100.00
2022-11-02T06:45:59.234Z,100.00
2022-11-02T06:48:32.987Z,100.00
2022-11-02T06:51:01.245Z,100.00
2022-11-02T06:53:27.797Z,100.00
2022-11-02T06:55:55.569Z,100.00
2022-11-02T06:58:26.799Z,100.00
2022-11-02T07:01:01.818Z,100.00
2022-11-02T07:03:29.248Z,100.00
2022-11-02T07:05:58.410Z,100.00
2022-11-02T07:08:25.766Z,100.00
2022-11-02T07:10:52.227Z,100.00
2022-11-02T07:13:21.504Z,100.00
2022-11-02T07:15:52.174Z,100.00
2022-11-02T07:18:20.861Z,100.00
2022-11-02T07:20:47.211Z,100.00
2022-11-02T07:23:13.609Z,100.00
2022-11-02T07:25:39.988Z,100.00
2022-11-02T07:28:06.411Z,100.00
2022-11-02T07:30:34.485Z,100.00
2022-11-02T07:33:04.625Z,100.00
2022-11-02T07:35:31.457Z,100.00
2022-11-02T07:38:02.202Z,100.00
2022-11-02T07:40:32.390Z,100.00
2022-11-02T07:42:59.300Z,100.00
2022-11-02T07:45:26.241Z,100.00
2022-11-02T07:47:52.973Z,100.00
2022-11-02T07:50:23.543Z,100.00
2022-11-02T07:52:54.769Z,100.00
2022-11-02T07:55:26.478Z,100.00
2022-11-02T07:57:58.231Z,100.00
2022-11-02T08:00:26.887Z,100.00
2022-11-02T08:03:00.990Z,100.00
2022-11-02T08:05:29.327Z,100.00
2022-11-02T08:08:00.169Z,100.00
2022-11-02T08:10:27.519Z,100.00
2022-11-02T08:12:57.752Z,100.00
2022-11-02T08:15:25.159Z,100.00
2022-11-02T08:18:11.406Z,100.00
2022-11-02T08:20:37.796Z,100.00
2022-11-02T08:23:07.736Z,100.00
2022-11-02T08:25:34.930Z,100.00
2022-11-02T08:28:01.743Z,100.00
2022-11-02T08:30:30.151Z,100.00
2022-11-02T08:33:03.525Z,100.00
2022-11-02T08:35:30.145Z,100.00
2022-11-02T08:37:57.651Z,100.00
2022-11-02T08:40:27.115Z,100.00
2022-11-02T08:42:57.896Z,100.00
2022-11-02T08:45:24.371Z,100.00
2022-11-02T08:47:53.500Z,100.00
2022-11-02T08:50:20.152Z,100.00
2022-11-02T08:52:46.598Z,100.00
2022-11-02T08:55:13.150Z,100.00
2022-11-02T08:57:56.464Z,100.00
2022-11-02T09:00:30.902Z,100.00
2022-11-02T09:03:02.971Z,100.00
2022-11-02T09:05:30.439Z,100.00
2022-11-02T09:07:59.129Z,100.00
2022-11-02T09:10:26.539Z,100.00
2022-11-02T09:12:55.224Z,100.00
2022-11-02T09:15:21.712Z,100.00
2022-11-02T09:17:48.949Z,100.00
2022-11-02T09:20:17.030Z,100.00
2022-11-02T09:22:44.008Z,100.00
2022-11-02T09:25:13.478Z,100.00
2022-11-02T09:27:43.251Z,100.00
2022-11-02T09:30:10.900Z,100.00
2022-11-02T09:32:44.918Z,100.00
2022-11-02T09:35:12.216Z,100.00
2022-11-02T09:37:38.792Z,100.00
2022-11-02T09:40:05.807Z,100.00
2022-11-02T09:42:53.297Z,100.00
2022-11-02T09:45:21.004Z,100.00
2022-11-02T09:48:16.069Z,100.00
2022-11-02T09:50:53.433Z,99.46
2022-11-02T09:53:27.423Z,100.00
2022-11-02T09:55:58.089Z,100.00
2022-11-02T09:58:32.556Z,100.00
2022-11-02T10:01:08.749Z,100.00
2022-11-02T10:04:01.482Z,100.00
2022-11-02T10:06:28.000Z,98.40
2022-11-02T10:09:13.266Z,96.33
2022-11-02T10:12:12.847Z,91.65
2022-11-02T10:14:49.462Z,95.88
2022-11-02T10:17:24.352Z,93.05
2022-11-02T10:20:00.311Z,91.01
2022-11-02T10:22:37.573Z,91.06
2022-11-02T10:25:06.764Z,88.75
2022-11-02T10:27:39.708Z,88.75
2022-11-02T10:30:16.422Z,85.18
2022-11-02T10:32:44.739Z,84.63
2022-11-02T10:35:45.854Z,85.34
2022-11-02T10:38:31.362Z,82.18
2022-11-02T10:41:37.828Z,82.07
2022-11-02T10:44:23.012Z,83.13
2022-11-02T10:47:01.069Z,82.94
2022-11-02T10:49:30.395Z,82.53
2022-11-02T10:51:56.868Z,83.23
2022-11-02T10:54:31.765Z,81.07
2022-11-02T10:57:11.766Z,77.94
2022-11-02T10:59:42.812Z,80.27
2022-11-02T11:02:14.894Z,80.28
2022-11-02T11:04:42.036Z,80.15
2022-11-02T11:07:17.337Z,78.41
2022-11-02T11:10:05.124Z,74.39
2022-11-02T11:12:40.871Z,76.12
2022-11-02T11:21:06.743Z,76.02
2022-11-02T11:23:33.274Z,73.07
2022-11-02T11:26:12.071Z,74.80
2022-11-02T11:28:52.491Z,73.58
2022-11-02T11:31:26.463Z,69.52
2022-11-02T11:33:58.163Z,69.31
2022-11-02T11:36:33.046Z,69.22
2022-11-02T11:39:29.816Z,68.75
2022-11-02T11:41:57.362Z,69.73
2022-11-02T11:44:24.407Z,68.12
2022-11-02T11:46:56.011Z,68.68
2022-11-02T11:52:31.873Z,68.57
2022-11-02T11:55:20.268Z,67.01
2022-11-02T11:57:47.347Z,66.18
2022-11-02T12:00:34.519Z,67.71
2022-11-02T12:03:07.455Z,65.66
2022-11-02T12:05:58.377Z,68.16
2022-11-02T12:08:34.296Z,64.04
2022-11-02T12:11:23.010Z,63.08
2022-11-02T12:14:10.822Z,63.86
2022-11-02T12:17:11.527Z,63.65
2022-11-02T12:20:09.488Z,62.03
2022-11-02T12:23:04.128Z,64.54
2022-11-02T12:25:42.607Z,61.29
2022-11-02T12:28:40.850Z,64.24
2022-11-02T12:31:33.166Z,64.45
2022-11-02T12:34:25.630Z,65.81
2022-11-02T12:40:08.988Z,65.31
2022-11-02T12:42:43.230Z,63.73
2022-11-02T12:45:43.065Z,65.27
2022-11-02T12:48:22.394Z,64.58
2022-11-02T12:51:00.631Z,64.96
2022-11-02T12:53:45.460Z,64.94
2022-11-02T12:56:26.759Z,65.66
2022-11-02T12:58:54.243Z,64.04
2022-11-02T13:01:35.929Z,64.29
2022-11-02T13:04:30.362Z,65.82
2022-11-02T13:07:05.128Z,67.21
2022-11-02T13:10:00.890Z,66.68
2022-11-02T13:12:32.242Z,66.68
2022-11-02T13:15:02.374Z,65.13
2022-11-02T13:17:48.333Z,61.97
2022-11-02T13:20:20.007Z,64.33
2022-11-02T13:22:57.980Z,65.40
2022-11-02T13:25:33.307Z,63.38
2022-11-02T13:28:06.024Z,65.19
2022-11-02T13:30:34.053Z,66.86
2022-11-02T13:33:12.393Z,67.60
2022-11-02T13:35:43.219Z,66.26
2022-11-02T13:38:12.581Z,64.97
2022-11-02T13:40:44.478Z,67.85
2022-11-02T13:43:41.116Z,63.69
2022-11-02T13:46:10.525Z,63.29
2022-11-02T13:48:39.921Z,63.67
2022-11-02T13:51:16.117Z,62.50
2022-11-02T13:53:52.419Z,64.67
2022-11-02T13:56:25.835Z,66.31
2022-11-02T13:59:05.827Z,65.22
2022-11-02T14:01:39.241Z,67.21
2022-11-02T14:04:11.571Z,66.13
2022-11-02T14:07:00.140Z,67.46
2022-11-02T14:09:44.651Z,69.19
2022-11-02T14:12:23.056Z,68.16
2022-11-02T14:15:17.334Z,69.25
2022-11-02T14:17:56.419Z,70.70
2022-11-02T14:20:35.636Z,70.17
2022-11-02T14:23:10.935Z,69.66
2022-11-02T14:25:51.495Z,70.23
2022-11-02T14:28:20.786Z,70.77
2022-11-02T14:31:02.128Z,70.97
2022-11-02T14:33:50.804Z,70.08
2022-11-02T14:36:17.198Z,70.34
2022-11-02T14:39:04.967Z,71.32
2022-11-02T14:41:34.328Z,71.24
2022-11-02T14:44:06.725Z,72.57
2022-11-02T14:46:43.238Z,73.23
2022-11-02T14:49:22.860Z,73.40
2022-11-02T14:52:06.408Z,75.21
2022-11-02T14:54:57.658Z,75.35
2022-11-02T14:57:34.623Z,74.02
2022-11-02T15:00:07.486Z,74.38
2022-11-02T15:02:41.990Z,74.37
2022-11-02T15:05:23.045Z,75.78
2022-11-02T15:07:58.177Z,76.01
2022-11-02T15:10:30.618Z,75.97
2022-11-02T15:13:18.743Z,76.96
2022-11-02T15:15:51.683Z,75.64
2022-11-02T15:18:30.204Z,75.64
2022-11-02T15:21:14.043Z,76.90
2022-11-02T15:23:49.247Z,76.75
2022-11-02T15:26:45.406Z,78.90
2022-11-02T15:29:32.826Z,77.30
2022-11-02T15:32:01.338Z,77.77
2022-11-02T15:34:36.099Z,78.75
2022-11-02T15:37:03.928Z,78.31
2022-11-02T15:39:31.061Z,78.05
2022-11-02T15:42:52.233Z,79.16
2022-11-02T15:45:50.521Z,79.22
2022-11-02T15:49:05.104Z,80.17
2022-11-02T15:51:41.881Z,80.47
2022-11-02T15:54:29.677Z,81.39
2022-11-02T15:57:40.284Z,81.79
2022-11-02T16:00:12.979Z,82.25
2022-11-02T16:02:42.647Z,82.55
2022-11-02T16:05:25.693Z,82.85
2022-11-02T16:08:11.417Z,82.94
2022-11-02T16:10:40.549Z,83.16
2022-11-02T16:13:20.334Z,83.95
2022-11-02T16:15:48.931Z,84.39
2022-11-02T16:18:26.623Z,84.17
2022-11-02T16:21:03.930Z,83.63
2022-11-02T16:23:33.065Z,84.70
2022-11-02T16:26:03.091Z,85.72
2022-11-02T16:28:32.140Z,86.13
2022-11-02T16:31:10.276Z,86.70
2022-11-02T16:33:45.940Z,87.70
2022-11-02T16:36:17.322Z,88.38
2022-11-02T16:39:17.574Z,90.03
2022-11-02T16:41:52.445Z,90.74
2022-11-02T16:44:30.433Z,90.52
2022-11-02T16:47:06.843Z,89.61
2022-11-02T16:49:35.415Z,90.39
2022-11-02T16:52:25.718Z,91.09
2022-11-02T16:54:52.193Z,92.13
2022-11-02T16:57:23.190Z,91.57
2022-11-02T16:59:52.229Z,91.83
2022-11-02T17:02:31.032Z,91.75
2022-11-02T17:05:05.794Z,92.34
2022-11-02T17:07:40.625Z,92.67
2022-11-02T17:10:08.526Z,94.00
2022-11-02T17:12:42.279Z,92.38
2022-11-02T17:15:19.063Z,92.78
2022-11-02T17:17:45.884Z,94.84
2022-11-02T17:20:14.937Z,93.16
2022-11-02T17:23:02.425Z,93.05
2022-11-02T17:25:36.925Z,93.65
2022-11-02T17:28:24.917Z,93.78
2022-11-02T17:30:53.735Z,94.66
2022-11-02T17:33:27.047Z,94.82
2022-11-02T17:35:55.650Z,95.47
2022-11-02T17:38:27.355Z,94.92
2022-11-02T17:40:54.280Z,94.90
2022-11-02T17:43:22.064Z,97.55
2022-11-02T17:45:56.808Z,97.08
2022-11-02T17:48:24.610Z,96.23
2022-11-02T17:50:55.791Z,97.93
2022-11-02T17:53:24.070Z,97.15
2022-11-02T17:55:51.020Z,98.11
2022-11-02T17:58:17.648Z,99.30
2022-11-02T18:00:44.386Z,99.11
2022-11-02T18:03:15.960Z,98.71
2022-11-02T18:05:45.116Z,98.02
2022-11-02T18:08:15.394Z,98.27
2022-11-02T18:10:44.650Z,99.76
2022-11-02T18:13:16.225Z,99.56
2022-11-02T18:15:43.188Z,99.11
2022-11-02T18:18:10.086Z,99.67
2022-11-02T18:20:41.491Z,99.07
2022-11-02T18:23:17.468Z,99.53
2022-11-02T18:25:46.074Z,98.39
2022-11-02T18:28:12.449Z,98.41
2022-11-02T18:30:43.158Z,97.86
2022-11-02T18:33:13.398Z,99.07
2022-11-02T18:35:40.851Z,98.63
2022-11-02T18:38:07.620Z,98.83
2022-11-02T18:40:35.613Z,99.29
2022-11-02T18:43:02.343Z,98.82
2022-11-02T18:47:56.215Z,99.92
2022-11-02T18:50:25.189Z,100.00
2022-11-02T18:52:51.774Z,100.00
2022-11-02T18:55:20.475Z,99.61
2022-11-02T18:57:50.889Z,100.00
2022-11-02T19:00:20.530Z,100.00
2022-11-02T19:02:46.935Z,100.00
2022-11-02T19:05:32.027Z,100.00
2022-11-02T19:08:20.718Z,100.00
2022-11-02T19:10:47.999Z,100.00
2022-11-02T19:13:14.792Z,100.00
2022-11-02T19:15:44.261Z,100.00
2022-11-02T19:18:12.854Z,100.00
2022-11-02T19:20:39.354Z,100.00
2022-11-02T19:23:06.097Z,100.00
2022-11-02T19:25:32.629Z,100.00
2022-11-02T19:27:59.321Z,100.00
2022-11-02T19:30:28.371Z,100.00
2022-11-02T19:32:54.818Z,100.00
2022-11-02T19:35:21.352Z,100.00
2022-11-02T19:37:47.734Z,100.00
2022-11-02T19:40:16.488Z,100.00
2022-11-02T19:42:48.357Z,100.00
2022-11-02T19:45:17.774Z,100.00
2022-11-02T19:47:44.307Z,100.00
2022-11-02T19:50:11.107Z,100.00
2022-11-02T19:52:37.543Z,100.00
2022-11-02T19:55:04.276Z,100.00
2022-11-02T19:57:33.300Z,100.00
2022-11-02T19:59:59.885Z,100.00
2022-11-02T20:02:26.481Z,100.00
2022-11-02T20:04:55.194Z,100.00
2022-11-02T20:07:21.611Z,100.00
2022-11-02T20:09:48.205Z,100.00
2022-11-02T20:12:15.003Z,100.00
2022-11-02T20:14:41.542Z,100.00
2022-11-02T20:17:30.128Z,100.00
2022-11-02T20:19:56.827Z,100.00
2022-11-02T20:22:23.299Z,100.00
2022-11-02T20:24:49.649Z,100.00
2022-11-02T20:27:16.071Z,100.00
2022-11-02T20:29:44.757Z,100.00
2022-11-02T20:32:12.524Z,100.00
2022-11-02T20:34:41.258Z,100.00
2022-11-02T20:37:10.221Z,100.00
2022-11-02T20:39:36.609Z,100.00
2022-11-02T20:42:03.342Z,100.00
2022-11-02T20:44:34.357Z,100.00
2022-11-02T20:47:03.640Z,100.00
2022-11-02T20:52:18.978Z,100.00
2022-11-02T20:54:45.730Z,100.00
2022-11-02T20:57:12.197Z,100.00
2022-11-02T20:59:38.624Z,100.00
2022-11-02T21:02:08.318Z,100.00
2022-11-02T21:04:37.122Z,100.00
2022-11-02T21:07:04.821Z,100.00
2022-11-02T21:09:31.214Z,100.00
2022-11-02T21:12:20.503Z,100.00
2022-11-02T21:14:46.982Z,100.00
2022-11-02T21:17:13.351Z,100.00
2022-11-02T21:19:39.722Z,100.00
2022-11-02T21:22:06.189Z,100.00
2022-11-02T21:24:32.648Z,100.00
2022-11-02T21:26:59.043Z,100.00
2022-11-02T21:29:27.859Z,100.00
2022-11-02T21:31:54.321Z,100.00
2022-11-02T21:34:20.720Z,100.00
2022-11-02T21:36:52.236Z,100.00
2022-11-02T21:39:18.646Z,100.00
2022-11-02T21:41:45.078Z,100.00
2022-11-02T21:44:11.971Z,100.00
2022-11-02T21:46:38.356Z,100.00
2022-11-02T21:49:04.724Z,100.00
2022-11-02T21:51:31.177Z,100.00
2022-11-02T21:53:57.632Z,100.00
2022-11-02T21:56:26.103Z,100.00
2022-11-02T21:58:54.615Z,100.00
2022-11-02T22:01:45.038Z,100.00
2022-11-02T22:04:21.325Z,100.00
2022-11-02T22:06:48.072Z,100.00
2022-11-02T22:09:14.524Z,100.00
2022-11-02T22:11:41.308Z,100.00
2022-11-02T22:14:10.442Z,100.00
2022-11-02T22:16:40.876Z,100.00
2022-11-02T22:19:10.397Z,100.00
2022-11-02T22:21:39.804Z,100.00
2022-11-02T22:24:07.371Z,100.00
2022-11-02T22:26:35.622Z,100.00
2022-11-02T22:29:02.591Z,100.00
2022-11-02T22:31:34.473Z,100.00
2022-11-02T22:34:03.696Z,100.00
2022-11-02T22:36:32.300Z,100.00
2022-11-02T22:39:00.423Z,100.00
2022-11-02T22:41:31.973Z,100.00
2022-11-02T22:44:01.599Z,100.00
2022-11-02T22:46:30.232Z,100.00
2022-11-02T22:48:58.533Z,100.00
2022-11-02T22:51:27.530Z,100.00
2022-11-02T22:53:54.184Z,100.00
2022-11-02T22:56:22.628Z,100.00
2022-11-02T22:58:49.950Z,100.00
2022-11-02T23:01:18.983Z,100.00
2022-11-02T23:03:48.537Z,100.00
2022-11-02T23:06:15.823Z,100.00
2022-11-02T23:08:46.368Z,100.00
2022-11-02T23:11:23.717Z,100.00
2022-11-02T23:14:05.208Z,100.00
2022-11-02T23:16:40.650Z,100.00
2022-11-02T23:19:25.138Z,100.00
2022-11-02T23:22:19.064Z,100.00
2022-11-02T23:25:05.412Z,100.00
2022-11-02T23:27:33.907Z,100.00
2022-11-02T23:30:19.286Z,100.00
2022-11-02T23:32:45.805Z,100.00
2022-11-02T23:35:30.685Z,100.00
2022-11-02T23:38:03.204Z,100.00
2022-11-02T23:40:29.603Z,100.00
2022-11-02T23:42:56.055Z,100.00
2022-11-02T23:45:22.488Z,100.00
2022-11-02T23:47:57.930Z,100.00
2022-11-02T23:50:44.790Z,100.00
2022-11-02T23:53:31.974Z,100.00
2022-11-02T23:56:18.126Z,100.00
2022-11-02T23:58:44.990Z,100.00
